sensor_id;sensor_type;location;lat;lon;timestamp;P1;durP1;ratioP1;P2;durP2;ratioP2
41921;SDS011;27609;51.002;5.354;2023-08-24T00:00:13;11.85;;;7.40;;
41921;SDS011;27609;51.002;5.354;2023-08-24T00:02:39;13.65;;;7.88;;
41921;SDS011;27609;51.002;5.354;2023-08-24T00:05:05;8.15;;;6.95;;
41921;SDS011;27609;51.002;5.354;2023-08-24T00:07:31;10.20;;;8.02;;
41921;SDS011;27609;51.002;5.354;2023-08-24T00:09:57;15.05;;;8.93;;
41921;SDS011;27609;51.002;5.354;2023-08-24T00:12:23;12.73;;;8.23;;
41921;SDS011;27609;51.002;5.354;2023-08-24T00:14:49;18.23;;;8.27;;
41921;SDS011;27609;51.002;5.354;2023-08-24T00:17:15;12.48;;;8.85;;
41921;SDS011;27609;51.002;5.354;2023-08-24T00:19:40;11.50;;;8.80;;
41921;SDS011;27609;51.002;5.354;2023-08-24T00:22:06;10.70;;;7.93;;
41921;SDS011;27609;51.002;5.354;2023-08-24T00:24:31;12.18;;;8.30;;
41921;SDS011;27609;51.002;5.354;2023-08-24T00:26:57;11.43;;;8.30;;
41921;SDS011;27609;51.002;5.354;2023-08-24T00:29:23;13.43;;;8.50;;
41921;SDS011;27609;51.002;5.354;2023-08-24T00:31:48;10.23;;;7.85;;
41921;SDS011;27609;51.002;5.354;2023-08-24T00:34:14;10.20;;;8.25;;
41921;SDS011;27609;51.002;5.354;2023-08-24T00:36:40;14.75;;;9.98;;
41921;SDS011;27609;51.002;5.354;2023-08-24T00:39:05;11.82;;;8.43;;
41921;SDS011;27609;51.002;5.354;2023-08-24T00:41:31;11.90;;;8.48;;
41921;SDS011;27609;51.002;5.354;2023-08-24T00:43:57;12.23;;;8.65;;
41921;SDS011;27609;51.002;5.354;2023-08-24T00:46:23;10.43;;;8.70;;
41921;SDS011;27609;51.002;5.354;2023-08-24T00:48:52;13.25;;;7.95;;
41921;SDS011;27609;51.002;5.354;2023-08-24T00:51:21;12.77;;;8.50;;
41921;SDS011;27609;51.002;5.354;2023-08-24T00:53:47;13.43;;;8.23;;
41921;SDS011;27609;51.002;5.354;2023-08-24T00:56:13;10.80;;;7.47;;
41921;SDS011;27609;51.002;5.354;2023-08-24T00:58:39;17.52;;;8.70;;
41921;SDS011;27609;51.002;5.354;2023-08-24T01:01:05;14.43;;;8.10;;
41921;SDS011;27609;51.002;5.354;2023-08-24T01:03:31;12.27;;;8.40;;
41921;SDS011;27609;51.002;5.354;2023-08-24T01:05:57;8.88;;;7.47;;
41921;SDS011;27609;51.002;5.354;2023-08-24T01:08:22;11.57;;;7.72;;
41921;SDS011;27609;51.002;5.354;2023-08-24T01:13:59;12.00;;;7.47;;
41921;SDS011;27609;51.002;5.354;2023-08-24T01:16:31;12.07;;;8.30;;
41921;SDS011;27609;51.002;5.354;2023-08-24T01:18:58;13.55;;;7.97;;
41921;SDS011;27609;51.002;5.354;2023-08-24T01:21:26;13.10;;;8.70;;
41921;SDS011;27609;51.002;5.354;2023-08-24T01:26:47;12.60;;;8.88;;
41921;SDS011;27609;51.002;5.354;2023-08-24T01:29:14;14.52;;;7.07;;
41921;SDS011;27609;51.002;5.354;2023-08-24T01:31:40;13.35;;;8.15;;
41921;SDS011;27609;51.002;5.354;2023-08-24T01:34:06;13.93;;;7.90;;
41921;SDS011;27609;51.002;5.354;2023-08-24T01:36:32;12.32;;;7.65;;
41921;SDS011;27609;51.002;5.354;2023-08-24T01:39:10;11.13;;;7.80;;
41921;SDS011;27609;51.002;5.354;2023-08-24T01:41:45;9.40;;;7.43;;
41921;SDS011;27609;51.002;5.354;2023-08-24T01:44:15;9.80;;;7.53;;
41921;SDS011;27609;51.002;5.354;2023-08-24T01:49:13;10.63;;;7.78;;
41921;SDS011;27609;51.002;5.354;2023-08-24T01:51:42;14.40;;;8.10;;
41921;SDS011;27609;51.002;5.354;2023-08-24T01:54:08;9.43;;;6.95;;
41921;SDS011;27609;51.002;5.354;2023-08-24T01:56:33;9.50;;;7.07;;
41921;SDS011;27609;51.002;5.354;2023-08-24T01:58:59;11.63;;;7.07;;
41921;SDS011;27609;51.002;5.354;2023-08-24T02:01:25;12.57;;;7.50;;
41921;SDS011;27609;51.002;5.354;2023-08-24T02:03:50;9.05;;;6.70;;
41921;SDS011;27609;51.002;5.354;2023-08-24T02:06:16;10.23;;;7.13;;
41921;SDS011;27609;51.002;5.354;2023-08-24T02:08:42;11.20;;;7.50;;
41921;SDS011;27609;51.002;5.354;2023-08-24T02:11:09;10.30;;;6.80;;
41921;SDS011;27609;51.002;5.354;2023-08-24T02:13:35;8.15;;;6.60;;
41921;SDS011;27609;51.002;5.354;2023-08-24T02:16:02;13.00;;;7.00;;
41921;SDS011;27609;51.002;5.354;2023-08-24T02:18:31;7.13;;;6.32;;
41921;SDS011;27609;51.002;5.354;2023-08-24T02:20:57;8.02;;;6.55;;
41921;SDS011;27609;51.002;5.354;2023-08-24T02:23:23;11.40;;;6.80;;
41921;SDS011;27609;51.002;5.354;2023-08-24T02:25:48;9.60;;;6.22;;
41921;SDS011;27609;51.002;5.354;2023-08-24T02:28:14;9.15;;;6.80;;
41921;SDS011;27609;51.002;5.354;2023-08-24T02:30:40;10.20;;;6.60;;
41921;SDS011;27609;51.002;5.354;2023-08-24T02:33:06;12.48;;;7.13;;
41921;SDS011;27609;51.002;5.354;2023-08-24T02:35:32;11.18;;;6.68;;
41921;SDS011;27609;51.002;5.354;2023-08-24T02:37:58;10.40;;;6.95;;
41921;SDS011;27609;51.002;5.354;2023-08-24T02:40:23;12.43;;;6.65;;
41921;SDS011;27609;51.002;5.354;2023-08-24T02:42:49;9.52;;;6.35;;
41921;SDS011;27609;51.002;5.354;2023-08-24T02:45:15;12.80;;;6.97;;
41921;SDS011;27609;51.002;5.354;2023-08-24T02:47:40;12.75;;;7.13;;
41921;SDS011;27609;51.002;5.354;2023-08-24T02:50:06;11.35;;;7.22;;
41921;SDS011;27609;51.002;5.354;2023-08-24T02:52:32;10.57;;;6.40;;
41921;SDS011;27609;51.002;5.354;2023-08-24T02:54:58;9.05;;;6.72;;
41921;SDS011;27609;51.002;5.354;2023-08-24T02:57:24;8.70;;;6.72;;
41921;SDS011;27609;51.002;5.354;2023-08-24T02:59:50;13.90;;;7.85;;
41921;SDS011;27609;51.002;5.354;2023-08-24T03:02:15;12.82;;;6.85;;
41921;SDS011;27609;51.002;5.354;2023-08-24T03:04:41;14.60;;;6.97;;
41921;SDS011;27609;51.002;5.354;2023-08-24T03:07:07;9.35;;;6.88;;
41921;SDS011;27609;51.002;5.354;2023-08-24T03:09:35;15.18;;;8.35;;
41921;SDS011;27609;51.002;5.354;2023-08-24T03:12:01;9.40;;;7.18;;
41921;SDS011;27609;51.002;5.354;2023-08-24T03:14:27;11.93;;;8.20;;
41921;SDS011;27609;51.002;5.354;2023-08-24T03:16:53;11.70;;;8.02;;
41921;SDS011;27609;51.002;5.354;2023-08-24T03:19:19;9.93;;;7.72;;
41921;SDS011;27609;51.002;5.354;2023-08-24T03:21:44;11.82;;;7.18;;
41921;SDS011;27609;51.002;5.354;2023-08-24T03:24:10;13.73;;;7.20;;
41921;SDS011;27609;51.002;5.354;2023-08-24T03:26:36;10.95;;;7.85;;
41921;SDS011;27609;51.002;5.354;2023-08-24T03:29:01;9.25;;;6.78;;
41921;SDS011;27609;51.002;5.354;2023-08-24T03:31:27;8.57;;;7.05;;
41921;SDS011;27609;51.002;5.354;2023-08-24T03:33:53;15.30;;;8.35;;
41921;SDS011;27609;51.002;5.354;2023-08-24T03:36:19;15.88;;;9.48;;
41921;SDS011;27609;51.002;5.354;2023-08-24T03:38:45;14.65;;;9.90;;
41921;SDS011;27609;51.002;5.354;2023-08-24T03:41:11;11.00;;;8.75;;
41921;SDS011;27609;51.002;5.354;2023-08-24T03:43:37;10.60;;;7.95;;
41921;SDS011;27609;51.002;5.354;2023-08-24T03:46:03;10.02;;;7.53;;
41921;SDS011;27609;51.002;5.354;2023-08-24T03:48:29;12.60;;;7.90;;
41921;SDS011;27609;51.002;5.354;2023-08-24T03:50:55;11.13;;;7.47;;
41921;SDS011;27609;51.002;5.354;2023-08-24T03:53:21;12.40;;;7.85;;
41921;SDS011;27609;51.002;5.354;2023-08-24T03:55:48;10.55;;;7.60;;
41921;SDS011;27609;51.002;5.354;2023-08-24T03:58:14;11.85;;;8.25;;
41921;SDS011;27609;51.002;5.354;2023-08-24T04:00:40;18.65;;;8.85;;
41921;SDS011;27609;51.002;5.354;2023-08-24T04:03:06;12.35;;;9.05;;
41921;SDS011;27609;51.002;5.354;2023-08-24T04:05:32;13.75;;;8.30;;
41921;SDS011;27609;51.002;5.354;2023-08-24T04:07:58;12.57;;;8.65;;
41921;SDS011;27609;51.002;5.354;2023-08-24T04:10:25;11.45;;;7.50;;
41921;SDS011;27609;51.002;5.354;2023-08-24T04:12:51;14.57;;;8.55;;
41921;SDS011;27609;51.002;5.354;2023-08-24T04:15:17;12.30;;;8.20;;
41921;SDS011;27609;51.002;5.354;2023-08-24T04:17:43;17.58;;;9.05;;
41921;SDS011;27609;51.002;5.354;2023-08-24T04:20:09;13.55;;;8.07;;
41921;SDS011;27609;51.002;5.354;2023-08-24T04:22:35;13.63;;;7.45;;
41921;SDS011;27609;51.002;5.354;2023-08-24T04:25:01;11.63;;;7.43;;
41921;SDS011;27609;51.002;5.354;2023-08-24T04:27:27;12.80;;;7.78;;
41921;SDS011;27609;51.002;5.354;2023-08-24T04:29:53;12.50;;;7.63;;
41921;SDS011;27609;51.002;5.354;2023-08-24T04:32:18;11.43;;;7.03;;
41921;SDS011;27609;51.002;5.354;2023-08-24T04:34:44;9.68;;;7.50;;
41921;SDS011;27609;51.002;5.354;2023-08-24T04:37:10;12.80;;;8.00;;
41921;SDS011;27609;51.002;5.354;2023-08-24T04:39:35;11.30;;;8.13;;
41921;SDS011;27609;51.002;5.354;2023-08-24T04:42:02;11.55;;;8.23;;
41921;SDS011;27609;51.002;5.354;2023-08-24T04:44:28;10.70;;;7.68;;
41921;SDS011;27609;51.002;5.354;2023-08-24T04:46:53;10.32;;;7.38;;
41921;SDS011;27609;51.002;5.354;2023-08-24T04:49:19;12.90;;;8.32;;
41921;SDS011;27609;51.002;5.354;2023-08-24T04:51:45;13.50;;;8.10;;
41921;SDS011;27609;51.002;5.354;2023-08-24T04:54:11;10.25;;;8.45;;
41921;SDS011;27609;51.002;5.354;2023-08-24T04:56:36;12.38;;;8.25;;
41921;SDS011;27609;51.002;5.354;2023-08-24T04:59:02;11.10;;;8.43;;
41921;SDS011;27609;51.002;5.354;2023-08-24T05:01:28;11.15;;;7.68;;
41921;SDS011;27609;51.002;5.354;2023-08-24T05:03:56;8.82;;;7.80;;
41921;SDS011;27609;51.002;5.354;2023-08-24T05:06:22;11.43;;;7.72;;
41921;SDS011;27609;51.002;5.354;2023-08-24T05:08:48;14.68;;;8.10;;
41921;SDS011;27609;51.002;5.354;2023-08-24T05:11:16;12.27;;;6.65;;
41921;SDS011;27609;51.002;5.354;2023-08-24T05:13:43;14.97;;;8.00;;
41921;SDS011;27609;51.002;5.354;2023-08-24T05:16:10;13.30;;;7.53;;
41921;SDS011;27609;51.002;5.354;2023-08-24T05:18:36;8.98;;;7.00;;
41921;SDS011;27609;51.002;5.354;2023-08-24T05:21:04;12.38;;;7.50;;
41921;SDS011;27609;51.002;5.354;2023-08-24T05:23:31;12.52;;;7.70;;
41921;SDS011;27609;51.002;5.354;2023-08-24T05:25:57;10.98;;;7.22;;
41921;SDS011;27609;51.002;5.354;2023-08-24T05:28:27;12.00;;;7.53;;
41921;SDS011;27609;51.002;5.354;2023-08-24T05:30:53;10.73;;;7.93;;
41921;SDS011;27609;51.002;5.354;2023-08-24T05:33:20;14.63;;;8.35;;
41921;SDS011;27609;51.002;5.354;2023-08-24T05:35:46;10.90;;;7.07;;
41921;SDS011;27609;51.002;5.354;2023-08-24T05:38:13;11.88;;;7.40;;
41921;SDS011;27609;51.002;5.354;2023-08-24T05:40:39;15.85;;;8.25;;
41921;SDS011;27609;51.002;5.354;2023-08-24T05:43:07;15.57;;;8.00;;
41921;SDS011;27609;51.002;5.354;2023-08-24T05:45:36;11.20;;;8.38;;
41921;SDS011;27609;51.002;5.354;2023-08-24T05:48:04;11.52;;;8.57;;
41921;SDS011;27609;51.002;5.354;2023-08-24T05:50:30;12.57;;;7.78;;
41921;SDS011;27609;51.002;5.354;2023-08-24T05:52:56;14.50;;;7.95;;
41921;SDS011;27609;51.002;5.354;2023-08-24T05:55:22;13.55;;;7.60;;
41921;SDS011;27609;51.002;5.354;2023-08-24T05:57:47;13.68;;;7.40;;
41921;SDS011;27609;51.002;5.354;2023-08-24T06:00:13;16.98;;;7.20;;
41921;SDS011;27609;51.002;5.354;2023-08-24T06:02:39;10.02;;;7.63;;
41921;SDS011;27609;51.002;5.354;2023-08-24T06:05:05;18.02;;;7.13;;
41921;SDS011;27609;51.002;5.354;2023-08-24T06:07:32;12.82;;;6.57;;
41921;SDS011;27609;51.002;5.354;2023-08-24T06:09:58;12.23;;;7.20;;
41921;SDS011;27609;51.002;5.354;2023-08-24T06:12:24;9.20;;;6.32;;
41921;SDS011;27609;51.002;5.354;2023-08-24T06:14:50;10.23;;;6.22;;
41921;SDS011;27609;51.002;5.354;2023-08-24T06:17:16;11.52;;;7.43;;
41921;SDS011;27609;51.002;5.354;2023-08-24T06:19:41;17.92;;;7.53;;
41921;SDS011;27609;51.002;5.354;2023-08-24T06:22:07;11.63;;;6.55;;
41921;SDS011;27609;51.002;5.354;2023-08-24T06:24:33;11.13;;;6.65;;
41921;SDS011;27609;51.002;5.354;2023-08-24T06:26:59;16.63;;;6.15;;
41921;SDS011;27609;51.002;5.354;2023-08-24T06:29:24;11.98;;;5.80;;
41921;SDS011;27609;51.002;5.354;2023-08-24T06:31:50;9.63;;;6.25;;
41921;SDS011;27609;51.002;5.354;2023-08-24T06:34:16;6.50;;;4.63;;
41921;SDS011;27609;51.002;5.354;2023-08-24T06:36:41;11.25;;;5.15;;
41921;SDS011;27609;51.002;5.354;2023-08-24T06:39:07;10.13;;;4.93;;
41921;SDS011;27609;51.002;5.354;2023-08-24T06:41:36;8.35;;;5.22;;
41921;SDS011;27609;51.002;5.354;2023-08-24T06:44:02;9.50;;;5.22;;
41921;SDS011;27609;51.002;5.354;2023-08-24T06:46:28;6.70;;;4.70;;
41921;SDS011;27609;51.002;5.354;2023-08-24T06:48:54;7.63;;;4.10;;
41921;SDS011;27609;51.002;5.354;2023-08-24T06:51:20;6.68;;;3.85;;
41921;SDS011;27609;51.002;5.354;2023-08-24T06:53:45;8.82;;;4.65;;
41921;SDS011;27609;51.002;5.354;2023-08-24T06:56:14;8.32;;;3.70;;
41921;SDS011;27609;51.002;5.354;2023-08-24T06:58:40;6.32;;;3.88;;
41921;SDS011;27609;51.002;5.354;2023-08-24T07:01:06;8.68;;;4.22;;
41921;SDS011;27609;51.002;5.354;2023-08-24T07:03:32;9.32;;;3.50;;
41921;SDS011;27609;51.002;5.354;2023-08-24T07:05:58;4.72;;;3.20;;
41921;SDS011;27609;51.002;5.354;2023-08-24T07:08:24;5.03;;;3.80;;
41921;SDS011;27609;51.002;5.354;2023-08-24T07:10:50;7.75;;;3.35;;
41921;SDS011;27609;51.002;5.354;2023-08-24T07:13:15;6.07;;;3.90;;
41921;SDS011;27609;51.002;5.354;2023-08-24T07:15:41;4.68;;;3.40;;
41921;SDS011;27609;51.002;5.354;2023-08-24T07:18:08;4.45;;;3.00;;
41921;SDS011;27609;51.002;5.354;2023-08-24T07:20:34;6.20;;;3.10;;
41921;SDS011;27609;51.002;5.354;2023-08-24T07:23:00;5.85;;;3.03;;
41921;SDS011;27609;51.002;5.354;2023-08-24T07:25:26;5.40;;;3.00;;
41921;SDS011;27609;51.002;5.354;2023-08-24T07:27:53;5.50;;;3.03;;
41921;SDS011;27609;51.002;5.354;2023-08-24T07:30:24;8.07;;;2.95;;
41921;SDS011;27609;51.002;5.354;2023-08-24T07:32:51;4.18;;;2.83;;
41921;SDS011;27609;51.002;5.354;2023-08-24T07:35:18;6.45;;;3.38;;
41921;SDS011;27609;51.002;5.354;2023-08-24T07:37:45;6.07;;;3.10;;
41921;SDS011;27609;51.002;5.354;2023-08-24T07:40:14;6.05;;;3.35;;
41921;SDS011;27609;51.002;5.354;2023-08-24T07:42:47;6.72;;;3.00;;
41921;SDS011;27609;51.002;5.354;2023-08-24T07:45:16;6.82;;;2.85;;
41921;SDS011;27609;51.002;5.354;2023-08-24T07:47:42;6.80;;;3.30;;
41921;SDS011;27609;51.002;5.354;2023-08-24T07:50:09;8.02;;;3.22;;
41921;SDS011;27609;51.002;5.354;2023-08-24T07:52:38;8.60;;;2.80;;
41921;SDS011;27609;51.002;5.354;2023-08-24T07:55:05;6.50;;;2.90;;
41921;SDS011;27609;51.002;5.354;2023-08-24T07:57:32;6.00;;;3.40;;
41921;SDS011;27609;51.002;5.354;2023-08-24T08:00:02;9.88;;;3.10;;
41921;SDS011;27609;51.002;5.354;2023-08-24T08:02:29;5.90;;;3.00;;
41921;SDS011;27609;51.002;5.354;2023-08-24T08:04:57;9.15;;;3.10;;
41921;SDS011;27609;51.002;5.354;2023-08-24T08:07:23;5.72;;;2.80;;
41921;SDS011;27609;51.002;5.354;2023-08-24T08:09:52;7.95;;;2.63;;
41921;SDS011;27609;51.002;5.354;2023-08-24T08:12:18;6.63;;;2.80;;
41921;SDS011;27609;51.002;5.354;2023-08-24T08:14:43;6.25;;;2.85;;
41921;SDS011;27609;51.002;5.354;2023-08-24T08:17:09;7.78;;;3.28;;
41921;SDS011;27609;51.002;5.354;2023-08-24T08:19:35;5.45;;;2.67;;
41921;SDS011;27609;51.002;5.354;2023-08-24T08:22:02;6.85;;;3.13;;
41921;SDS011;27609;51.002;5.354;2023-08-24T08:24:28;6.85;;;3.78;;
41921;SDS011;27609;51.002;5.354;2023-08-24T08:26:54;5.72;;;3.22;;
41921;SDS011;27609;51.002;5.354;2023-08-24T08:29:20;8.95;;;3.42;;
41921;SDS011;27609;51.002;5.354;2023-08-24T08:31:45;4.93;;;2.67;;
41921;SDS011;27609;51.002;5.354;2023-08-24T08:34:11;7.22;;;3.13;;
41921;SDS011;27609;51.002;5.354;2023-08-24T08:36:37;6.40;;;3.10;;
41921;SDS011;27609;51.002;5.354;2023-08-24T08:39:03;6.13;;;3.38;;
41921;SDS011;27609;51.002;5.354;2023-08-24T08:41:30;21.75;;;4.20;;
41921;SDS011;27609;51.002;5.354;2023-08-24T08:44:04;6.70;;;3.47;;
41921;SDS011;27609;51.002;5.354;2023-08-24T08:46:31;8.52;;;3.67;;
41921;SDS011;27609;51.002;5.354;2023-08-24T08:48:58;4.07;;;3.05;;
41921;SDS011;27609;51.002;5.354;2023-08-24T08:51:25;6.68;;;3.45;;
41921;SDS011;27609;51.002;5.354;2023-08-24T08:53:51;6.57;;;3.15;;
41921;SDS011;27609;51.002;5.354;2023-08-24T08:56:17;7.50;;;3.10;;
41921;SDS011;27609;51.002;5.354;2023-08-24T08:58:43;5.82;;;2.97;;
41921;SDS011;27609;51.002;5.354;2023-08-24T09:01:11;5.45;;;3.05;;
41921;SDS011;27609;51.002;5.354;2023-08-24T09:03:37;4.95;;;2.90;;
41921;SDS011;27609;51.002;5.354;2023-08-24T09:06:04;7.50;;;3.55;;
41921;SDS011;27609;51.002;5.354;2023-08-24T09:08:30;7.35;;;3.35;;
41921;SDS011;27609;51.002;5.354;2023-08-24T09:10:58;7.78;;;3.45;;
41921;SDS011;27609;51.002;5.354;2023-08-24T09:13:24;7.03;;;3.65;;
41921;SDS011;27609;51.002;5.354;2023-08-24T09:15:51;8.82;;;3.85;;
41921;SDS011;27609;51.002;5.354;2023-08-24T09:18:18;7.88;;;3.83;;
41921;SDS011;27609;51.002;5.354;2023-08-24T09:20:46;6.55;;;3.10;;
41921;SDS011;27609;51.002;5.354;2023-08-24T09:23:17;7.53;;;3.30;;
41921;SDS011;27609;51.002;5.354;2023-08-24T09:25:46;9.43;;;3.38;;
41921;SDS011;27609;51.002;5.354;2023-08-24T09:28:13;8.15;;;3.42;;
41921;SDS011;27609;51.002;5.354;2023-08-24T09:30:39;5.10;;;3.20;;
41921;SDS011;27609;51.002;5.354;2023-08-24T09:33:10;9.63;;;3.10;;
41921;SDS011;27609;51.002;5.354;2023-08-24T09:35:36;6.93;;;3.30;;
41921;SDS011;27609;51.002;5.354;2023-08-24T09:38:23;5.43;;;3.03;;
41921;SDS011;27609;51.002;5.354;2023-08-24T09:40:52;9.52;;;4.18;;
41921;SDS011;27609;51.002;5.354;2023-08-24T09:43:18;5.40;;;3.10;;
41921;SDS011;27609;51.002;5.354;2023-08-24T09:45:47;7.38;;;3.13;;
41921;SDS011;27609;51.002;5.354;2023-08-24T09:48:14;5.97;;;3.08;;
41921;SDS011;27609;51.002;5.354;2023-08-24T09:50:40;6.72;;;3.50;;
41921;SDS011;27609;51.002;5.354;2023-08-24T09:53:07;10.90;;;3.75;;
41921;SDS011;27609;51.002;5.354;2023-08-24T09:58:04;7.30;;;4.20;;
41921;SDS011;27609;51.002;5.354;2023-08-24T10:00:34;14.95;;;3.70;;
41921;SDS011;27609;51.002;5.354;2023-08-24T10:03:02;6.10;;;3.80;;
41921;SDS011;27609;51.002;5.354;2023-08-24T10:05:29;4.93;;;3.33;;
41921;SDS011;27609;51.002;5.354;2023-08-24T10:07:57;6.25;;;3.72;;
41921;SDS011;27609;51.002;5.354;2023-08-24T10:10:24;8.18;;;3.65;;
41921;SDS011;27609;51.002;5.354;2023-08-24T10:12:51;10.07;;;3.95;;
41921;SDS011;27609;51.002;5.354;2023-08-24T10:15:22;10.63;;;3.30;;
41921;SDS011;27609;51.002;5.354;2023-08-24T10:17:49;7.55;;;3.17;;
41921;SDS011;27609;51.002;5.354;2023-08-24T10:20:17;5.63;;;3.00;;
41921;SDS011;27609;51.002;5.354;2023-08-24T10:22:45;7.75;;;3.35;;
41921;SDS011;27609;51.002;5.354;2023-08-24T10:25:11;4.65;;;3.30;;
41921;SDS011;27609;51.002;5.354;2023-08-24T10:27:39;5.65;;;3.47;;
41921;SDS011;27609;51.002;5.354;2023-08-24T10:30:11;8.15;;;3.97;;
41921;SDS011;27609;51.002;5.354;2023-08-24T10:32:38;7.53;;;3.75;;
41921;SDS011;27609;51.002;5.354;2023-08-24T10:35:06;8.65;;;3.55;;
41921;SDS011;27609;51.002;5.354;2023-08-24T10:37:32;9.98;;;4.43;;
41921;SDS011;27609;51.002;5.354;2023-08-24T10:39:59;9.57;;;4.10;;
41921;SDS011;27609;51.002;5.354;2023-08-24T10:42:25;12.05;;;3.53;;
41921;SDS011;27609;51.002;5.354;2023-08-24T10:44:51;5.93;;;3.80;;
41921;SDS011;27609;51.002;5.354;2023-08-24T10:47:18;11.80;;;4.05;;
41921;SDS011;27609;51.002;5.354;2023-08-24T10:50:06;13.20;;;3.88;;
41921;SDS011;27609;51.002;5.354;2023-08-24T10:52:32;5.00;;;3.35;;
41921;SDS011;27609;51.002;5.354;2023-08-24T10:55:01;7.90;;;4.00;;
41921;SDS011;27609;51.002;5.354;2023-08-24T10:57:35;10.63;;;4.25;;
41921;SDS011;27609;51.002;5.354;2023-08-24T11:00:03;12.10;;;4.63;;
41921;SDS011;27609;51.002;5.354;2023-08-24T11:02:30;11.20;;;4.90;;
41921;SDS011;27609;51.002;5.354;2023-08-24T11:05:24;9.80;;;4.93;;
41921;SDS011;27609;51.002;5.354;2023-08-24T11:07:53;10.15;;;5.22;;
41921;SDS011;27609;51.002;5.354;2023-08-24T11:10:21;10.88;;;5.60;;
41921;SDS011;27609;51.002;5.354;2023-08-24T11:13:03;11.98;;;5.90;;
41921;SDS011;27609;51.002;5.354;2023-08-24T11:15:30;10.93;;;5.60;;
41921;SDS011;27609;51.002;5.354;2023-08-24T11:20:46;9.98;;;6.53;;
41921;SDS011;27609;51.002;5.354;2023-08-24T11:23:24;10.93;;;6.28;;
41921;SDS011;27609;51.002;5.354;2023-08-24T11:25:51;9.98;;;6.20;;
41921;SDS011;27609;51.002;5.354;2023-08-24T11:28:21;8.40;;;5.43;;
41921;SDS011;27609;51.002;5.354;2023-08-24T11:30:49;7.43;;;5.97;;
41921;SDS011;27609;51.002;5.354;2023-08-24T11:33:16;10.60;;;6.43;;
41921;SDS011;27609;51.002;5.354;2023-08-24T11:35:43;11.27;;;5.90;;
41921;SDS011;27609;51.002;5.354;2023-08-24T11:38:10;14.13;;;7.25;;
41921;SDS011;27609;51.002;5.354;2023-08-24T11:40:36;16.42;;;7.57;;
41921;SDS011;27609;51.002;5.354;2023-08-24T11:43:02;10.93;;;7.53;;
41921;SDS011;27609;51.002;5.354;2023-08-24T11:45:30;14.63;;;6.97;;
41921;SDS011;27609;51.002;5.354;2023-08-24T11:47:58;8.90;;;6.78;;
41921;SDS011;27609;51.002;5.354;2023-08-24T11:50:26;10.10;;;7.15;;
41921;SDS011;27609;51.002;5.354;2023-08-24T11:52:52;16.50;;;6.82;;
41921;SDS011;27609;51.002;5.354;2023-08-24T11:55:19;8.35;;;6.65;;
41921;SDS011;27609;51.002;5.354;2023-08-24T11:57:46;11.48;;;7.88;;
41921;SDS011;27609;51.002;5.354;2023-08-24T12:00:12;12.32;;;7.22;;
41921;SDS011;27609;51.002;5.354;2023-08-24T12:02:39;10.07;;;7.13;;
41921;SDS011;27609;51.002;5.354;2023-08-24T12:05:06;11.85;;;6.68;;
41921;SDS011;27609;51.002;5.354;2023-08-24T12:07:32;8.93;;;5.60;;
41921;SDS011;27609;51.002;5.354;2023-08-24T12:10:01;10.38;;;6.25;;
41921;SDS011;27609;51.002;5.354;2023-08-24T12:12:27;9.75;;;5.90;;
41921;SDS011;27609;51.002;5.354;2023-08-24T12:14:54;12.88;;;6.53;;
41921;SDS011;27609;51.002;5.354;2023-08-24T12:17:20;9.73;;;6.32;;
41921;SDS011;27609;51.002;5.354;2023-08-24T12:19:58;7.63;;;5.53;;
41921;SDS011;27609;51.002;5.354;2023-08-24T12:22:25;8.00;;;5.50;;
41921;SDS011;27609;51.002;5.354;2023-08-24T12:24:51;11.20;;;5.70;;
41921;SDS011;27609;51.002;5.354;2023-08-24T12:27:21;8.55;;;5.35;;
41921;SDS011;27609;51.002;5.354;2023-08-24T12:29:48;7.18;;;5.25;;
41921;SDS011;27609;51.002;5.354;2023-08-24T12:32:14;10.15;;;5.90;;
41921;SDS011;27609;51.002;5.354;2023-08-24T12:34:41;11.05;;;6.18;;
41921;SDS011;27609;51.002;5.354;2023-08-24T12:37:10;10.03;;;6.17;;
41921;SDS011;27609;51.002;5.354;2023-08-24T12:39:36;9.88;;;5.80;;
41921;SDS011;27609;51.002;5.354;2023-08-24T12:42:03;9.48;;;6.40;;
41921;SDS011;27609;51.002;5.354;2023-08-24T12:44:29;9.07;;;5.20;;
41921;SDS011;27609;51.002;5.354;2023-08-24T12:46:55;6.95;;;4.78;;
41921;SDS011;27609;51.002;5.354;2023-08-24T12:49:20;9.18;;;5.60;;
41921;SDS011;27609;51.002;5.354;2023-08-24T12:51:46;9.88;;;5.85;;
41921;SDS011;27609;51.002;5.354;2023-08-24T12:54:12;9.15;;;5.40;;
41921;SDS011;27609;51.002;5.354;2023-08-24T12:56:41;11.10;;;5.65;;
41921;SDS011;27609;51.002;5.354;2023-08-24T12:59:07;11.60;;;6.10;;
41921;SDS011;27609;51.002;5.354;2023-08-24T13:01:33;9.48;;;5.57;;
41921;SDS011;27609;51.002;5.354;2023-08-24T13:03:59;11.18;;;4.78;;
41921;SDS011;27609;51.002;5.354;2023-08-24T13:06:24;6.05;;;4.22;;
41921;SDS011;27609;51.002;5.354;2023-08-24T13:08:53;8.45;;;3.97;;
41921;SDS011;27609;51.002;5.354;2023-08-24T13:11:19;5.80;;;3.70;;
41921;SDS011;27609;51.002;5.354;2023-08-24T13:13:44;10.05;;;4.32;;
41921;SDS011;27609;51.002;5.354;2023-08-24T13:16:13;11.93;;;4.10;;
41921;SDS011;27609;51.002;5.354;2023-08-24T13:18:38;8.80;;;4.50;;
41921;SDS011;27609;51.002;5.354;2023-08-24T13:21:04;6.63;;;4.85;;
41921;SDS011;27609;51.002;5.354;2023-08-24T13:23:30;12.07;;;4.95;;
41921;SDS011;27609;51.002;5.354;2023-08-24T13:25:59;9.93;;;5.80;;
41921;SDS011;27609;51.002;5.354;2023-08-24T13:28:25;9.93;;;5.60;;
41921;SDS011;27609;51.002;5.354;2023-08-24T13:30:50;9.35;;;5.53;;
41921;SDS011;27609;51.002;5.354;2023-08-24T13:33:16;10.27;;;6.13;;
41921;SDS011;27609;51.002;5.354;2023-08-24T13:35:43;9.10;;;5.32;;
41921;SDS011;27609;51.002;5.354;2023-08-24T13:38:09;8.00;;;5.93;;
41921;SDS011;27609;51.002;5.354;2023-08-24T13:40:34;9.10;;;5.55;;
41921;SDS011;27609;51.002;5.354;2023-08-24T13:43:00;7.00;;;5.63;;
41921;SDS011;27609;51.002;5.354;2023-08-24T13:45:26;9.40;;;5.35;;
41921;SDS011;27609;51.002;5.354;2023-08-24T13:47:51;7.15;;;4.88;;
41921;SDS011;27609;51.002;5.354;2023-08-24T13:50:17;7.15;;;4.60;;
41921;SDS011;27609;51.002;5.354;2023-08-24T13:52:43;5.10;;;4.05;;
41921;SDS011;27609;51.002;5.354;2023-08-24T13:55:09;7.35;;;3.70;;
41921;SDS011;27609;51.002;5.354;2023-08-24T13:57:35;9.65;;;3.30;;
41921;SDS011;27609;51.002;5.354;2023-08-24T14:00:00;7.13;;;3.10;;
41921;SDS011;27609;51.002;5.354;2023-08-24T14:02:28;5.45;;;2.53;;
41921;SDS011;27609;51.002;5.354;2023-08-24T14:04:54;4.50;;;3.00;;
41921;SDS011;27609;51.002;5.354;2023-08-24T14:07:20;4.15;;;3.00;;
41921;SDS011;27609;51.002;5.354;2023-08-24T14:09:46;5.25;;;3.33;;
41921;SDS011;27609;51.002;5.354;2023-08-24T14:12:11;9.13;;;2.83;;
41921;SDS011;27609;51.002;5.354;2023-08-24T14:14:37;4.32;;;2.70;;
41921;SDS011;27609;51.002;5.354;2023-08-24T14:17:02;2.20;;;2.00;;
41921;SDS011;27609;51.002;5.354;2023-08-24T14:19:28;3.70;;;2.25;;
41921;SDS011;27609;51.002;5.354;2023-08-24T14:21:54;4.15;;;2.88;;
41921;SDS011;27609;51.002;5.354;2023-08-24T14:24:19;3.17;;;2.42;;
41921;SDS011;27609;51.002;5.354;2023-08-24T14:26:45;5.53;;;2.17;;
41921;SDS011;27609;51.002;5.354;2023-08-24T14:29:11;7.25;;;2.67;;
41921;SDS011;27609;51.002;5.354;2023-08-24T14:31:38;3.33;;;2.53;;
41921;SDS011;27609;51.002;5.354;2023-08-24T14:34:03;6.43;;;2.50;;
41921;SDS011;27609;51.002;5.354;2023-08-24T14:36:29;4.72;;;1.73;;
41921;SDS011;27609;51.002;5.354;2023-08-24T14:38:56;2.63;;;1.88;;
41921;SDS011;27609;51.002;5.354;2023-08-24T14:41:23;10.15;;;2.10;;
41921;SDS011;27609;51.002;5.354;2023-08-24T14:43:48;8.32;;;2.30;;
41921;SDS011;27609;51.002;5.354;2023-08-24T14:46:14;4.07;;;2.20;;
41921;SDS011;27609;51.002;5.354;2023-08-24T14:48:40;6.20;;;2.63;;
41921;SDS011;27609;51.002;5.354;2023-08-24T14:51:05;2.50;;;2.00;;